• Join FlightAware (Why Join?)
  • Login
  • US Flag 
Trick or treat! (Boo!!) 
01:47AM EDT


 

Airport Tracker/Info


-or-


 

Live Flight TrackerFlight Track Log ✈ SWA1960 ✈ 29-Apr-2013 ✈ KBWI - KCHS

Flight Track Log - Related Links

Times and Time Zones

All times are in EDT time to prevent confusion due to time zone crossing. See the SWA1960 flight status page for this flight to view local times or setup timezone preferences in your user account.

Time Position Orientation Groundspeed Altitude Reporting Facility
EDT Latitude Longitude Course Direction KTS MPH feet Rate Location/Type
02:18PM 39.1333 -76.6333 180° South 173 199 2,600  Level Potomac TRACON
02:19PM 39.0833 -76.5667 134° Southeast 238 274 4,700 2,580 Climbing Potomac TRACON
02:21PM 39.0083 -76.4572 131° Southeast 269 310 10,000 2,580 Climbing Washington Center
02:22PM 38.9208 -76.4453 174° South 268 308 11,800 1,920 Climbing Washington Center
02:23PM 38.8328 -76.5083 209° Southwest 302 348 13,900 1,020 Climbing Washington Center
02:24PM 38.6639 -76.9665 180° South  Level Estimated
02:24PM 38.7489 -76.5767 212° Southwest 329 379 13,900  Level Washington Center
02:25PM 38.6628 -76.6472 213° Southwest 356 410 15,700 2,280 Climbing Washington Center
02:26PM 38.5744 -76.7122 210° Southwest 362 417 18,500 2,640 Climbing Washington Center
02:27PM 38.4661 -76.7161 182° South 367 422 20,900 2,520 Climbing Washington Center
02:28PM 38.3536 -76.7011 174° South 382 440 23,600 2,580 Climbing Washington Center
02:29PM 38.2433 -76.6836 173° South 382 440 26,200 2,160 Climbing Washington Center
02:30PM 38.1331 -76.6661 173° South 394 453 28,000 1,620 Climbing Washington Center
02:31PM 38.0164 -76.6539 175° South 405 466 29,500 1,740 Climbing Washington Center
02:32PM 37.9017 -76.6522 179° South 417 480 31,500 1,200 Climbing Washington Center
02:33PM 37.7889 -76.6664 186° South 417 480 32,000 240 Climbing Washington Center
02:34PM 37.6761 -76.6833 187° South 417 480 32,000 120 Level Washington Center
02:35PM 37.5633 -76.6975 186° South 417 480 32,300 1,260 Climbing Washington Center
02:36PM 37.4547 -76.7117 186° South 405 466 34,500 1,680 Climbing Washington Center
02:37PM 37.3542 -76.7467 195° South 391 450 35,700 960 Climbing Washington Center
02:38PM 37.2517 -76.7894 198° South 391 450 36,500 840 Climbing Washington Center
02:39PM 37.1469 -76.8322 198° South 391 450 37,400 720 Climbing Washington Center
02:40PM 37.0442 -76.8772 199° South 396 456 38,000 300 Climbing Washington Center
02:41PM 36.9394 -76.9197 198° South 396 456 38,000  Level Washington Center
02:42PM 36.8389 -76.9622 199° South 396 456 38,000  Level Washington Center
02:43PM 36.7383 -77.0019 198° South 386 444 38,000  Level Washington Center
02:44PM 36.6497 -77.0728 213° Southwest 379 436 38,000  Level Washington Center
02:45PM 36.5881 -77.1700 232° Southwest 374 430 38,000  Level Washington Center
02:46PM 36.5075 -77.2508 219° Southwest 362 417 38,000  Level Washington Center
02:47PM 36.4211 -77.3214 213° Southwest 372 428 38,000  Level Washington Center
02:48PM 36.3386 -77.3917 214° Southwest 372 428 38,000  Level Washington Center
02:49PM 36.2500 -77.4669 214° Southwest 366 421 38,000  Level Washington Center
02:50PM 36.1631 -77.5397 214° Southwest 366 421 38,000  Level Washington Center
02:51PM 36.0786 -77.6094 214° Southwest 366 421 38,000  Level Washington Center
02:52PM 35.9897 -77.6792 212° Southwest 372 428 38,000  Level Washington Center
02:53PM 35.9008 -77.7536 214° Southwest 379 436 38,000  Level Washington Center
02:54PM 35.8161 -77.8231 214° Southwest 379 436 38,000  Level Washington Center
02:55PM 35.7269 -77.8947 213° Southwest 379 436 38,000  Level Washington Center
02:56PM 35.6403 -77.9639 213° Southwest 379 436 38,000  Level Washington Center
02:57PM 35.5533 -78.0328 213° Southwest 379 436 38,000  Level Washington Center
02:58PM 35.4683 -78.1014 213° Southwest 379 436 38,000  Level Washington Center
02:59PM 35.3900 -78.1603 212° Southwest 379 436 38,000  Level Washington Center
03:00PM 35.3008 -78.2286 212° Southwest 379 436 38,000 -1,080 Level Washington Center
03:01PM 35.2117 -78.2994 213° Southwest 379 436 35,900 -1,680 Descending Washington Center
03:02PM 35.1203 -78.3700 212° Southwest 379 436 34,700 -1,200 Descending Washington Center
03:03PM 35.0311 -78.4381 212° Southwest 379 436 33,600 -1,080 Descending Washington Center
03:04PM 34.9417 -78.5083 213° Southwest 379 436 32,600 -1,140 Descending Washington Center
03:08PM 34.5992 -78.7686 212° Southwest 359 413 28,000 -960 Descending Jacksonville Center
03:09PM 34.5158 -78.8306 211° Southwest 354 407 28,000  Level Jacksonville Center
03:10PM 34.4286 -78.9053 215° Southwest 349 402 28,000 -120 Level Jacksonville Center
03:11PM 34.3428 -78.9694 212° Southwest 359 413 27,800 -600 Descending Jacksonville Center
03:12PM 34.2592 -79.0261 209° Southwest 359 413 26,800 -1,020 Descending Jacksonville Center
03:13PM 34.1686 -79.0703 202° Southwest 353 406 25,800 -1,020 Descending Jacksonville Center
03:14PM 34.1000 -79.1461 222° Southwest 347 399 24,800 -1,020 Descending Jacksonville Center
03:15PM 34.0314 -79.2242 223° Southwest 342 394 23,800 -1,020 Descending Jacksonville Center
03:16PM 33.9625 -79.2997 222° Southwest 342 394 22,800 -1,020 Descending Jacksonville Center
03:17PM 33.8869 -79.3578 213° Southwest 337 388 21,800 -1,260 Descending Jacksonville Center
03:18PM 33.8092 -79.4108 210° Southwest 331 381 20,300 -1,680 Descending Jacksonville Center
03:19PM 33.7375 -79.4611 210° Southwest 312 359 18,500 -1,680 Descending Jacksonville Center
03:20PM 33.6742 -79.5086 212° Southwest 312 359 17,000 -1,800 Descending Jacksonville Center
03:21PM 33.6006 -79.5611 211° Southwest 312 359 15,000 -2,100 Descending Jacksonville Center
03:22PM 33.5247 -79.6164 211° Southwest 318 366 12,900 -2,100 Descending Jacksonville Center
03:23PM 33.4489 -79.6714 211° Southwest 318 366 10,900 -1,080 Descending Jacksonville Center
03:24PM 33.3833 -79.7236 214° Southwest 310 357 10,800 -960 Descending Jacksonville Center
03:25PM 33.3286 -79.7803 221° Southwest 280 322 9,000 -1,860 Descending Jacksonville Center
03:26PM 33.2736 -79.8367 221° Southwest 269 310 7,100 -1,800 Descending Jacksonville Center
03:27PM 33.2164 -79.8958 221° Southwest 269 310 5,400 -1,560 Descending Jacksonville Center
03:28PM 33.1617 -79.9547 222° Southwest 269 310 4,000 -1,200 Descending Jacksonville Center
03:29PM 33.1019 -79.9989 212° Southwest 269 310 3,000 -1,080 Descending Jacksonville Center
03:30PM 33.0372 -79.9958 178° South 230 265 1,900 -720 Descending Jacksonville Center
03:31PM 32.9850 -79.9975 182° South 216 249 1,600 -300 Descending Jacksonville Center
03:33PM 32.8986 -80.0405 207° Southwest  Level Estimated
03:40PM 32.8986 -80.0405 207° Southwest  Level Estimated
03:41PM 32.8986 -80.0405 207° Southwest  Level Estimated
03:42PM 32.8986 -80.0405 207° Southwest  Level Estimated